sensor_id;sensor_type;location;lat;lon;timestamp;P1;durP1;ratioP1;P2;durP2;ratioP2
13230;SDS011;6681;53.254;10.398;2022-10-31T00:01:36;12.47;;;10.40;;
13230;SDS011;6681;53.254;10.398;2022-10-31T00:04:03;11.67;;;10.27;;
13230;SDS011;6681;53.254;10.398;2022-10-31T00:06:30;12.23;;;9.57;;
13230;SDS011;6681;53.254;10.398;2022-10-31T00:08:56;11.80;;;8.87;;
13230;SDS011;6681;53.254;10.398;2022-10-31T00:11:24;9.57;;;8.43;;
13230;SDS011;6681;53.254;10.398;2022-10-31T00:13:50;13.83;;;8.63;;
13230;SDS011;6681;53.254;10.398;2022-10-31T00:16:19;20.60;;;10.27;;
13230;SDS011;6681;53.254;10.398;2022-10-31T00:18:50;15.60;;;8.67;;
13230;SDS011;6681;53.254;10.398;2022-10-31T00:21:20;10.03;;;8.63;;
13230;SDS011;6681;53.254;10.398;2022-10-31T00:23:46;12.07;;;8.47;;
13230;SDS011;6681;53.254;10.398;2022-10-31T00:26:12;11.77;;;8.63;;
13230;SDS011;6681;53.254;10.398;2022-10-31T00:28:38;10.97;;;9.87;;
13230;SDS011;6681;53.254;10.398;2022-10-31T00:31:04;10.90;;;8.90;;
13230;SDS011;6681;53.254;10.398;2022-10-31T00:33:33;11.30;;;8.87;;
13230;SDS011;6681;53.254;10.398;2022-10-31T00:35:59;9.40;;;8.50;;
13230;SDS011;6681;53.254;10.398;2022-10-31T00:38:25;12.87;;;8.67;;
13230;SDS011;6681;53.254;10.398;2022-10-31T00:40:51;15.23;;;8.87;;
13230;SDS011;6681;53.254;10.398;2022-10-31T00:43:16;13.73;;;10.03;;
13230;SDS011;6681;53.254;10.398;2022-10-31T00:45:42;11.80;;;8.87;;
13230;SDS011;6681;53.254;10.398;2022-10-31T00:48:08;16.20;;;8.30;;
13230;SDS011;6681;53.254;10.398;2022-10-31T00:50:34;8.53;;;7.77;;
13230;SDS011;6681;53.254;10.398;2022-10-31T00:53:00;9.80;;;8.33;;
13230;SDS011;6681;53.254;10.398;2022-10-31T00:55:25;17.00;;;9.37;;
13230;SDS011;6681;53.254;10.398;2022-10-31T00:57:51;10.63;;;8.47;;
13230;SDS011;6681;53.254;10.398;2022-10-31T01:00:17;12.33;;;9.40;;
13230;SDS011;6681;53.254;10.398;2022-10-31T01:02:42;8.53;;;7.17;;
13230;SDS011;6681;53.254;10.398;2022-10-31T01:05:08;12.63;;;8.97;;
13230;SDS011;6681;53.254;10.398;2022-10-31T01:07:37;8.40;;;7.20;;
13230;SDS011;6681;53.254;10.398;2022-10-31T01:10:04;11.13;;;8.70;;
13230;SDS011;6681;53.254;10.398;2022-10-31T01:12:35;9.73;;;7.27;;
13230;SDS011;6681;53.254;10.398;2022-10-31T01:15:02;10.47;;;8.80;;
13230;SDS011;6681;53.254;10.398;2022-10-31T01:17:28;13.77;;;8.47;;
13230;SDS011;6681;53.254;10.398;2022-10-31T01:19:54;12.37;;;7.70;;
13230;SDS011;6681;53.254;10.398;2022-10-31T01:22:20;12.83;;;9.00;;
13230;SDS011;6681;53.254;10.398;2022-10-31T01:24:45;12.23;;;8.23;;
13230;SDS011;6681;53.254;10.398;2022-10-31T01:27:11;9.13;;;8.00;;
13230;SDS011;6681;53.254;10.398;2022-10-31T01:29:36;21.77;;;8.50;;
13230;SDS011;6681;53.254;10.398;2022-10-31T01:32:02;14.60;;;8.13;;
13230;SDS011;6681;53.254;10.398;2022-10-31T01:34:28;12.70;;;8.17;;
13230;SDS011;6681;53.254;10.398;2022-10-31T01:36:53;15.53;;;9.00;;
13230;SDS011;6681;53.254;10.398;2022-10-31T01:39:19;10.17;;;7.90;;
13230;SDS011;6681;53.254;10.398;2022-10-31T01:41:46;10.23;;;8.37;;
13230;SDS011;6681;53.254;10.398;2022-10-31T01:52:38;10.33;;;8.00;;
13230;SDS011;6681;53.254;10.398;2022-10-31T01:55:16;11.87;;;7.97;;
13230;SDS011;6681;53.254;10.398;2022-10-31T01:57:44;12.67;;;7.80;;
13230;SDS011;6681;53.254;10.398;2022-10-31T02:00:13;12.63;;;8.77;;
13230;SDS011;6681;53.254;10.398;2022-10-31T02:02:39;12.63;;;9.23;;
13230;SDS011;6681;53.254;10.398;2022-10-31T02:05:06;10.40;;;7.90;;
13230;SDS011;6681;53.254;10.398;2022-10-31T02:07:39;15.77;;;8.73;;
13230;SDS011;6681;53.254;10.398;2022-10-31T02:10:16;10.13;;;8.23;;
13230;SDS011;6681;53.254;10.398;2022-10-31T02:12:43;9.57;;;7.37;;
13230;SDS011;6681;53.254;10.398;2022-10-31T02:15:10;12.53;;;8.37;;
13230;SDS011;6681;53.254;10.398;2022-10-31T02:17:36;13.67;;;8.37;;
13230;SDS011;6681;53.254;10.398;2022-10-31T02:33:39;12.40;;;8.87;;
13230;SDS011;6681;53.254;10.398;2022-10-31T02:41:32;22.20;;;13.33;;
13230;SDS011;6681;53.254;10.398;2022-10-31T02:44:15;21.10;;;10.47;;
13230;SDS011;6681;53.254;10.398;2022-10-31T02:46:57;20.23;;;12.13;;
13230;SDS011;6681;53.254;10.398;2022-10-31T02:49:28;21.77;;;13.03;;
13230;SDS011;6681;53.254;10.398;2022-10-31T02:51:58;18.03;;;12.30;;
13230;SDS011;6681;53.254;10.398;2022-10-31T02:54:24;17.90;;;12.17;;
13230;SDS011;6681;53.254;10.398;2022-10-31T02:57:02;20.10;;;14.13;;
13230;SDS011;6681;53.254;10.398;2022-10-31T02:59:32;19.50;;;13.17;;
13230;SDS011;6681;53.254;10.398;2022-10-31T03:02:04;17.13;;;12.50;;
13230;SDS011;6681;53.254;10.398;2022-10-31T03:20:28;17.80;;;14.30;;
13230;SDS011;6681;53.254;10.398;2022-10-31T03:22:59;24.77;;;17.57;;
13230;SDS011;6681;53.254;10.398;2022-10-31T03:25:27;27.87;;;19.07;;
13230;SDS011;6681;53.254;10.398;2022-10-31T03:27:55;22.00;;;15.97;;
13230;SDS011;6681;53.254;10.398;2022-10-31T03:30:22;27.50;;;17.37;;
13230;SDS011;6681;53.254;10.398;2022-10-31T03:32:52;30.13;;;18.73;;
13230;SDS011;6681;53.254;10.398;2022-10-31T03:35:20;26.13;;;18.50;;
13230;SDS011;6681;53.254;10.398;2022-10-31T03:37:49;29.10;;;17.83;;
13230;SDS011;6681;53.254;10.398;2022-10-31T03:40:17;26.23;;;17.57;;
13230;SDS011;6681;53.254;10.398;2022-10-31T03:42:46;28.17;;;18.10;;
13230;SDS011;6681;53.254;10.398;2022-10-31T03:45:20;29.63;;;19.03;;
13230;SDS011;6681;53.254;10.398;2022-10-31T03:47:52;31.20;;;19.57;;
13230;SDS011;6681;53.254;10.398;2022-10-31T03:50:19;36.63;;;21.37;;
13230;SDS011;6681;53.254;10.398;2022-10-31T03:52:50;35.53;;;22.83;;
13230;SDS011;6681;53.254;10.398;2022-10-31T03:55:28;30.67;;;20.10;;
13230;SDS011;6681;53.254;10.398;2022-10-31T03:57:59;34.03;;;23.03;;
13230;SDS011;6681;53.254;10.398;2022-10-31T04:00:32;32.97;;;20.93;;
13230;SDS011;6681;53.254;10.398;2022-10-31T04:03:00;32.20;;;22.90;;
13230;SDS011;6681;53.254;10.398;2022-10-31T04:05:32;36.80;;;22.80;;
13230;SDS011;6681;53.254;10.398;2022-10-31T04:08:00;41.30;;;26.90;;
13230;SDS011;6681;53.254;10.398;2022-10-31T04:10:29;39.20;;;24.40;;
13230;SDS011;6681;53.254;10.398;2022-10-31T04:12:57;41.50;;;22.13;;
13230;SDS011;6681;53.254;10.398;2022-10-31T04:15:28;31.47;;;21.73;;
13230;SDS011;6681;53.254;10.398;2022-10-31T04:17:55;41.20;;;25.23;;
13230;SDS011;6681;53.254;10.398;2022-10-31T04:20:31;34.00;;;25.70;;
13230;SDS011;6681;53.254;10.398;2022-10-31T04:22:57;41.17;;;23.90;;
13230;SDS011;6681;53.254;10.398;2022-10-31T04:25:24;40.30;;;26.83;;
13230;SDS011;6681;53.254;10.398;2022-10-31T04:27:49;48.90;;;26.67;;
13230;SDS011;6681;53.254;10.398;2022-10-31T04:30:15;45.33;;;27.77;;
13230;SDS011;6681;53.254;10.398;2022-10-31T04:32:40;47.63;;;27.80;;
13230;SDS011;6681;53.254;10.398;2022-10-31T04:35:06;40.60;;;26.23;;
13230;SDS011;6681;53.254;10.398;2022-10-31T04:37:32;36.77;;;24.50;;
13230;SDS011;6681;53.254;10.398;2022-10-31T04:39:57;35.67;;;24.40;;
13230;SDS011;6681;53.254;10.398;2022-10-31T04:42:23;49.10;;;28.03;;
13230;SDS011;6681;53.254;10.398;2022-10-31T04:44:48;34.50;;;22.67;;
13230;SDS011;6681;53.254;10.398;2022-10-31T04:47:14;34.00;;;22.77;;
13230;SDS011;6681;53.254;10.398;2022-10-31T04:49:39;37.50;;;23.97;;
13230;SDS011;6681;53.254;10.398;2022-10-31T04:52:05;46.90;;;27.37;;
13230;SDS011;6681;53.254;10.398;2022-10-31T04:54:32;34.87;;;26.97;;
13230;SDS011;6681;53.254;10.398;2022-10-31T04:56:57;46.53;;;28.37;;
13230;SDS011;6681;53.254;10.398;2022-10-31T04:59:23;31.33;;;23.17;;
13230;SDS011;6681;53.254;10.398;2022-10-31T05:01:48;31.27;;;22.33;;
13230;SDS011;6681;53.254;10.398;2022-10-31T05:04:14;34.30;;;23.47;;
13230;SDS011;6681;53.254;10.398;2022-10-31T05:06:39;36.13;;;24.30;;
13230;SDS011;6681;53.254;10.398;2022-10-31T05:09:05;34.17;;;23.30;;
13230;SDS011;6681;53.254;10.398;2022-10-31T05:11:31;34.57;;;24.03;;
13230;SDS011;6681;53.254;10.398;2022-10-31T05:13:56;35.17;;;24.73;;
13230;SDS011;6681;53.254;10.398;2022-10-31T05:16:22;37.97;;;25.53;;
13230;SDS011;6681;53.254;10.398;2022-10-31T05:18:48;30.83;;;21.37;;
13230;SDS011;6681;53.254;10.398;2022-10-31T05:21:14;36.73;;;22.93;;
13230;SDS011;6681;53.254;10.398;2022-10-31T05:23:40;38.77;;;23.50;;
13230;SDS011;6681;53.254;10.398;2022-10-31T05:26:05;47.40;;;27.47;;
13230;SDS011;6681;53.254;10.398;2022-10-31T05:28:31;41.70;;;27.13;;
13230;SDS011;6681;53.254;10.398;2022-10-31T05:30:56;31.87;;;23.17;;
13230;SDS011;6681;53.254;10.398;2022-10-31T05:33:22;40.90;;;26.97;;
13230;SDS011;6681;53.254;10.398;2022-10-31T05:35:47;40.67;;;24.77;;
13230;SDS011;6681;53.254;10.398;2022-10-31T05:38:13;50.33;;;32.30;;
13230;SDS011;6681;53.254;10.398;2022-10-31T05:40:39;40.40;;;24.43;;
13230;SDS011;6681;53.254;10.398;2022-10-31T05:43:04;54.23;;;30.53;;
13230;SDS011;6681;53.254;10.398;2022-10-31T05:45:30;51.40;;;30.90;;
13230;SDS011;6681;53.254;10.398;2022-10-31T05:47:59;62.23;;;32.10;;
13230;SDS011;6681;53.254;10.398;2022-10-31T05:50:26;55.60;;;32.23;;
13230;SDS011;6681;53.254;10.398;2022-10-31T05:52:54;49.57;;;28.90;;
13230;SDS011;6681;53.254;10.398;2022-10-31T05:55:20;45.97;;;29.27;;
13230;SDS011;6681;53.254;10.398;2022-10-31T05:57:46;60.13;;;30.80;;
13230;SDS011;6681;53.254;10.398;2022-10-31T06:00:11;44.03;;;28.97;;
13230;SDS011;6681;53.254;10.398;2022-10-31T06:02:37;45.93;;;27.63;;
13230;SDS011;6681;53.254;10.398;2022-10-31T06:05:03;51.67;;;28.80;;
13230;SDS011;6681;53.254;10.398;2022-10-31T06:07:32;48.03;;;28.90;;
13230;SDS011;6681;53.254;10.398;2022-10-31T06:09:59;53.17;;;31.17;;
13230;SDS011;6681;53.254;10.398;2022-10-31T06:12:25;39.67;;;25.60;;
13230;SDS011;6681;53.254;10.398;2022-10-31T06:14:50;47.77;;;29.23;;
13230;SDS011;6681;53.254;10.398;2022-10-31T06:17:16;45.40;;;26.23;;
13230;SDS011;6681;53.254;10.398;2022-10-31T06:19:41;46.10;;;29.03;;
13230;SDS011;6681;53.254;10.398;2022-10-31T06:22:07;53.90;;;31.27;;
13230;SDS011;6681;53.254;10.398;2022-10-31T06:24:33;45.80;;;29.80;;
13230;SDS011;6681;53.254;10.398;2022-10-31T06:26:58;53.17;;;28.97;;
13230;SDS011;6681;53.254;10.398;2022-10-31T06:29:24;40.73;;;25.00;;
13230;SDS011;6681;53.254;10.398;2022-10-31T06:31:52;43.47;;;26.33;;
13230;SDS011;6681;53.254;10.398;2022-10-31T06:34:18;48.67;;;29.23;;
13230;SDS011;6681;53.254;10.398;2022-10-31T06:36:45;45.93;;;27.70;;
13230;SDS011;6681;53.254;10.398;2022-10-31T06:39:11;46.40;;;27.53;;
13230;SDS011;6681;53.254;10.398;2022-10-31T06:41:37;42.97;;;28.30;;
13230;SDS011;6681;53.254;10.398;2022-10-31T06:44:04;38.87;;;24.37;;
13230;SDS011;6681;53.254;10.398;2022-10-31T06:46:30;41.93;;;27.97;;
13230;SDS011;6681;53.254;10.398;2022-10-31T06:48:56;44.50;;;27.50;;
13230;SDS011;6681;53.254;10.398;2022-10-31T06:51:22;40.17;;;25.57;;
13230;SDS011;6681;53.254;10.398;2022-10-31T06:53:47;49.37;;;30.37;;
13230;SDS011;6681;53.254;10.398;2022-10-31T06:56:13;54.47;;;30.47;;
13230;SDS011;6681;53.254;10.398;2022-10-31T06:58:38;49.83;;;29.17;;
13230;SDS011;6681;53.254;10.398;2022-10-31T07:01:04;43.83;;;27.00;;
13230;SDS011;6681;53.254;10.398;2022-10-31T07:03:30;40.93;;;26.70;;
13230;SDS011;6681;53.254;10.398;2022-10-31T07:05:56;43.10;;;26.77;;
13230;SDS011;6681;53.254;10.398;2022-10-31T07:08:22;50.80;;;26.07;;
13230;SDS011;6681;53.254;10.398;2022-10-31T07:10:55;41.67;;;25.90;;
13230;SDS011;6681;53.254;10.398;2022-10-31T07:13:21;32.33;;;22.00;;
13230;SDS011;6681;53.254;10.398;2022-10-31T07:15:50;37.13;;;23.60;;
13230;SDS011;6681;53.254;10.398;2022-10-31T07:18:18;40.37;;;26.33;;
13230;SDS011;6681;53.254;10.398;2022-10-31T07:20:44;40.47;;;24.33;;
13230;SDS011;6681;53.254;10.398;2022-10-31T07:23:10;45.37;;;26.47;;
13230;SDS011;6681;53.254;10.398;2022-10-31T07:25:36;46.03;;;24.07;;
13230;SDS011;6681;53.254;10.398;2022-10-31T07:28:02;37.23;;;23.37;;
13230;SDS011;6681;53.254;10.398;2022-10-31T07:30:28;38.13;;;22.27;;
13230;SDS011;6681;53.254;10.398;2022-10-31T07:32:54;42.40;;;24.53;;
13230;SDS011;6681;53.254;10.398;2022-10-31T07:35:23;45.87;;;25.17;;
13230;SDS011;6681;53.254;10.398;2022-10-31T07:37:51;41.83;;;23.73;;
13230;SDS011;6681;53.254;10.398;2022-10-31T07:40:17;39.17;;;22.60;;
13230;SDS011;6681;53.254;10.398;2022-10-31T07:42:47;40.50;;;25.03;;
13230;SDS011;6681;53.254;10.398;2022-10-31T07:45:16;39.30;;;22.53;;
13230;SDS011;6681;53.254;10.398;2022-10-31T07:47:48;33.10;;;20.97;;
13230;SDS011;6681;53.254;10.398;2022-10-31T07:50:25;43.30;;;20.73;;
13230;SDS011;6681;53.254;10.398;2022-10-31T07:53:09;37.53;;;22.20;;
13230;SDS011;6681;53.254;10.398;2022-10-31T07:55:36;38.97;;;21.33;;
13230;SDS011;6681;53.254;10.398;2022-10-31T07:58:03;44.57;;;23.13;;
13230;SDS011;6681;53.254;10.398;2022-10-31T08:00:31;31.27;;;19.40;;
13230;SDS011;6681;53.254;10.398;2022-10-31T08:02:58;39.37;;;22.37;;
13230;SDS011;6681;53.254;10.398;2022-10-31T08:05:28;27.87;;;19.70;;
13230;SDS011;6681;53.254;10.398;2022-10-31T08:07:54;40.50;;;19.23;;
13230;SDS011;6681;53.254;10.398;2022-10-31T08:10:20;32.30;;;20.10;;
13230;SDS011;6681;53.254;10.398;2022-10-31T08:12:47;24.97;;;17.33;;
13230;SDS011;6681;53.254;10.398;2022-10-31T08:15:19;37.60;;;19.30;;
13230;SDS011;6681;53.254;10.398;2022-10-31T08:17:44;26.50;;;16.70;;
13230;SDS011;6681;53.254;10.398;2022-10-31T08:20:10;38.33;;;17.47;;
13230;SDS011;6681;53.254;10.398;2022-10-31T08:22:36;34.50;;;19.40;;
13230;SDS011;6681;53.254;10.398;2022-10-31T08:25:01;29.80;;;17.23;;
13230;SDS011;6681;53.254;10.398;2022-10-31T08:27:27;33.07;;;20.43;;
13230;SDS011;6681;53.254;10.398;2022-10-31T08:29:53;34.27;;;16.40;;
13230;SDS011;6681;53.254;10.398;2022-10-31T08:32:18;25.77;;;17.10;;
13230;SDS011;6681;53.254;10.398;2022-10-31T08:34:44;30.03;;;19.57;;
13230;SDS011;6681;53.254;10.398;2022-10-31T08:37:09;36.20;;;17.77;;
13230;SDS011;6681;53.254;10.398;2022-10-31T08:39:35;35.13;;;17.83;;
13230;SDS011;6681;53.254;10.398;2022-10-31T08:42:01;36.30;;;21.03;;
13230;SDS011;6681;53.254;10.398;2022-10-31T08:44:26;32.07;;;17.77;;
13230;SDS011;6681;53.254;10.398;2022-10-31T08:46:52;35.43;;;19.73;;
13230;SDS011;6681;53.254;10.398;2022-10-31T08:49:18;26.87;;;16.80;;
13230;SDS011;6681;53.254;10.398;2022-10-31T08:51:46;26.20;;;17.67;;
13230;SDS011;6681;53.254;10.398;2022-10-31T08:54:13;30.87;;;16.10;;
13230;SDS011;6681;53.254;10.398;2022-10-31T08:56:38;30.87;;;15.43;;
13230;SDS011;6681;53.254;10.398;2022-10-31T08:59:04;24.63;;;14.17;;
13230;SDS011;6681;53.254;10.398;2022-10-31T09:01:29;28.77;;;14.03;;
13230;SDS011;6681;53.254;10.398;2022-10-31T09:03:55;24.27;;;13.70;;
13230;SDS011;6681;53.254;10.398;2022-10-31T09:06:20;21.97;;;16.97;;
13230;SDS011;6681;53.254;10.398;2022-10-31T09:08:46;21.10;;;15.17;;
13230;SDS011;6681;53.254;10.398;2022-10-31T09:11:12;27.03;;;14.00;;
13230;SDS011;6681;53.254;10.398;2022-10-31T09:13:37;24.77;;;13.77;;
13230;SDS011;6681;53.254;10.398;2022-10-31T09:16:03;19.03;;;12.90;;
13230;SDS011;6681;53.254;10.398;2022-10-31T09:18:29;25.03;;;16.87;;
13230;SDS011;6681;53.254;10.398;2022-10-31T09:20:57;22.23;;;13.93;;
13230;SDS011;6681;53.254;10.398;2022-10-31T09:23:24;27.70;;;15.47;;
13230;SDS011;6681;53.254;10.398;2022-10-31T09:25:50;40.00;;;20.07;;
13230;SDS011;6681;53.254;10.398;2022-10-31T09:28:18;33.67;;;18.83;;
13230;SDS011;6681;53.254;10.398;2022-10-31T09:30:48;29.40;;;14.60;;
13230;SDS011;6681;53.254;10.398;2022-10-31T09:33:15;22.30;;;13.57;;
13230;SDS011;6681;53.254;10.398;2022-10-31T09:35:41;23.10;;;14.57;;
13230;SDS011;6681;53.254;10.398;2022-10-31T09:38:11;32.53;;;13.20;;
13230;SDS011;6681;53.254;10.398;2022-10-31T09:40:43;16.93;;;10.50;;
13230;SDS011;6681;53.254;10.398;2022-10-31T09:49:32;21.20;;;14.10;;
13230;SDS011;6681;53.254;10.398;2022-10-31T09:52:12;20.23;;;14.10;;
13230;SDS011;6681;53.254;10.398;2022-10-31T09:54:57;16.77;;;13.43;;
13230;SDS011;6681;53.254;10.398;2022-10-31T09:57:35;23.03;;;12.53;;
13230;SDS011;6681;53.254;10.398;2022-10-31T10:00:06;17.07;;;10.33;;
13230;SDS011;6681;53.254;10.398;2022-10-31T10:05:34;19.77;;;10.10;;
13230;SDS011;6681;53.254;10.398;2022-10-31T10:11:05;15.20;;;10.27;;
13230;SDS011;6681;53.254;10.398;2022-10-31T10:13:49;15.20;;;9.87;;
13230;SDS011;6681;53.254;10.398;2022-10-31T10:16:29;13.67;;;8.83;;
13230;SDS011;6681;53.254;10.398;2022-10-31T10:22:12;13.20;;;9.63;;
13230;SDS011;6681;53.254;10.398;2022-10-31T10:27:39;16.13;;;8.40;;
13230;SDS011;6681;53.254;10.398;2022-10-31T10:30:19;13.23;;;8.17;;
13230;SDS011;6681;53.254;10.398;2022-10-31T10:32:51;11.80;;;7.90;;
13230;SDS011;6681;53.254;10.398;2022-10-31T10:37:49;15.40;;;8.53;;
13230;SDS011;6681;53.254;10.398;2022-10-31T10:40:20;14.77;;;9.97;;
13230;SDS011;6681;53.254;10.398;2022-10-31T10:45:46;12.30;;;10.47;;
13230;SDS011;6681;53.254;10.398;2022-10-31T10:51:41;9.60;;;6.63;;
13230;SDS011;6681;53.254;10.398;2022-10-31T10:54:36;13.37;;;7.27;;
13230;SDS011;6681;53.254;10.398;2022-10-31T10:57:38;17.40;;;7.30;;
13230;SDS011;6681;53.254;10.398;2022-10-31T11:00:22;12.30;;;6.53;;
13230;SDS011;6681;53.254;10.398;2022-10-31T11:02:49;8.93;;;6.20;;
13230;SDS011;6681;53.254;10.398;2022-10-31T11:05:30;11.47;;;5.77;;
13230;SDS011;6681;53.254;10.398;2022-10-31T11:08:01;7.77;;;5.43;;
13230;SDS011;6681;53.254;10.398;2022-10-31T11:10:27;14.47;;;7.27;;
13230;SDS011;6681;53.254;10.398;2022-10-31T11:12:58;12.33;;;6.67;;
13230;SDS011;6681;53.254;10.398;2022-10-31T11:15:25;11.13;;;6.57;;
13230;SDS011;6681;53.254;10.398;2022-10-31T11:17:52;14.37;;;7.63;;
13230;SDS011;6681;53.254;10.398;2022-10-31T11:20:28;12.33;;;7.30;;
13230;SDS011;6681;53.254;10.398;2022-10-31T11:23:18;8.57;;;6.53;;
13230;SDS011;6681;53.254;10.398;2022-10-31T11:25:49;8.73;;;4.50;;
13230;SDS011;6681;53.254;10.398;2022-10-31T11:28:25;6.90;;;5.17;;
13230;SDS011;6681;53.254;10.398;2022-10-31T11:30:55;8.43;;;5.10;;
13230;SDS011;6681;53.254;10.398;2022-10-31T11:33:38;8.07;;;5.23;;
13230;SDS011;6681;53.254;10.398;2022-10-31T11:36:16;9.27;;;5.60;;
13230;SDS011;6681;53.254;10.398;2022-10-31T11:38:48;11.57;;;6.07;;
13230;SDS011;6681;53.254;10.398;2022-10-31T11:41:59;6.33;;;4.40;;
13230;SDS011;6681;53.254;10.398;2022-10-31T11:46:59;9.87;;;5.33;;
13230;SDS011;6681;53.254;10.398;2022-10-31T11:49:32;9.57;;;5.67;;
13230;SDS011;6681;53.254;10.398;2022-10-31T11:52:05;8.97;;;4.90;;
13230;SDS011;6681;53.254;10.398;2022-10-31T11:54:40;9.03;;;6.40;;
13230;SDS011;6681;53.254;10.398;2022-10-31T11:59:58;10.60;;;6.13;;
13230;SDS011;6681;53.254;10.398;2022-10-31T12:02:25;9.83;;;5.37;;
13230;SDS011;6681;53.254;10.398;2022-10-31T12:07:27;7.07;;;6.37;;
13230;SDS011;6681;53.254;10.398;2022-10-31T12:09:53;12.90;;;5.03;;
13230;SDS011;6681;53.254;10.398;2022-10-31T12:17:42;7.23;;;5.37;;
13230;SDS011;6681;53.254;10.398;2022-10-31T12:26:27;9.47;;;4.67;;
13230;SDS011;6681;53.254;10.398;2022-10-31T12:32:08;7.33;;;4.70;;
13230;SDS011;6681;53.254;10.398;2022-10-31T12:40:06;5.87;;;4.93;;
13230;SDS011;6681;53.254;10.398;2022-10-31T13:02:15;5.50;;;4.10;;
13230;SDS011;6681;53.254;10.398;2022-10-31T13:04:46;8.43;;;5.13;;
13230;SDS011;6681;53.254;10.398;2022-10-31T13:07:34;4.53;;;3.70;;
13230;SDS011;6681;53.254;10.398;2022-10-31T13:10:08;5.50;;;3.63;;
13230;SDS011;6681;53.254;10.398;2022-10-31T13:12:48;7.60;;;4.77;;
13230;SDS011;6681;53.254;10.398;2022-10-31T13:15:19;4.50;;;3.87;;
13230;SDS011;6681;53.254;10.398;2022-10-31T13:17:53;6.53;;;3.50;;
13230;SDS011;6681;53.254;10.398;2022-10-31T13:20:24;9.30;;;4.87;;
13230;SDS011;6681;53.254;10.398;2022-10-31T13:23:02;9.80;;;4.10;;
13230;SDS011;6681;53.254;10.398;2022-10-31T13:25:49;4.93;;;3.67;;
13230;SDS011;6681;53.254;10.398;2022-10-31T13:28:39;4.60;;;3.50;;
13230;SDS011;6681;53.254;10.398;2022-10-31T13:31:12;5.43;;;4.50;;
13230;SDS011;6681;53.254;10.398;2022-10-31T13:33:40;7.43;;;3.73;;
13230;SDS011;6681;53.254;10.398;2022-10-31T13:41:56;6.03;;;4.23;;
13230;SDS011;6681;53.254;10.398;2022-10-31T13:44:26;5.57;;;3.73;;
13230;SDS011;6681;53.254;10.398;2022-10-31T13:46:53;7.37;;;3.90;;
13230;SDS011;6681;53.254;10.398;2022-10-31T13:54:37;7.07;;;4.17;;
13230;SDS011;6681;53.254;10.398;2022-10-31T14:02:31;6.77;;;4.20;;
13230;SDS011;6681;53.254;10.398;2022-10-31T14:05:04;6.00;;;4.30;;
13230;SDS011;6681;53.254;10.398;2022-10-31T14:07:43;7.77;;;5.00;;
13230;SDS011;6681;53.254;10.398;2022-10-31T14:10:26;7.57;;;4.67;;
13230;SDS011;6681;53.254;10.398;2022-10-31T14:15:29;8.90;;;5.13;;
13230;SDS011;6681;53.254;10.398;2022-10-31T14:17:59;10.27;;;4.60;;
13230;SDS011;6681;53.254;10.398;2022-10-31T14:20:40;6.67;;;4.00;;
13230;SDS011;6681;53.254;10.398;2022-10-31T14:26:06;6.67;;;4.47;;
13230;SDS011;6681;53.254;10.398;2022-10-31T14:28:44;8.73;;;4.27;;
13230;SDS011;6681;53.254;10.398;2022-10-31T14:31:57;7.40;;;4.60;;
13230;SDS011;6681;53.254;10.398;2022-10-31T14:34:01;10.53;;;4.80;;
13230;SDS011;6681;53.254;10.398;2022-10-31T14:39:26;5.87;;;3.90;;
13230;SDS011;6681;53.254;10.398;2022-10-31T14:44:55;10.47;;;4.80;;
13230;SDS011;6681;53.254;10.398;2022-10-31T14:47:38;11.77;;;5.83;;
13230;SDS011;6681;53.254;10.398;2022-10-31T14:53:01;9.53;;;5.67;;
13230;SDS011;6681;53.254;10.398;2022-10-31T14:55:29;11.03;;;6.37;;
13230;SDS011;6681;53.254;10.398;2022-10-31T14:57:57;9.60;;;7.40;;
13230;SDS011;6681;53.254;10.398;2022-10-31T15:00:28;9.07;;;6.70;;
13230;SDS011;6681;53.254;10.398;2022-10-31T15:05:40;10.67;;;6.90;;
13230;SDS011;6681;53.254;10.398;2022-10-31T15:08:29;11.50;;;7.40;;
13230;SDS011;6681;53.254;10.398;2022-10-31T15:10:56;8.53;;;5.90;;
13230;SDS011;6681;53.254;10.398;2022-10-31T15:13:21;10.90;;;6.77;;
13230;SDS011;6681;53.254;10.398;2022-10-31T15:15:48;9.57;;;5.80;;
13230;SDS011;6681;53.254;10.398;2022-10-31T15:18:17;10.43;;;7.90;;
13230;SDS011;6681;53.254;10.398;2022-10-31T15:20:46;10.37;;;6.30;;
13230;SDS011;6681;53.254;10.398;2022-10-31T15:23:16;10.30;;;6.07;;
13230;SDS011;6681;53.254;10.398;2022-10-31T15:25:49;17.53;;;7.63;;
13230;SDS011;6681;53.254;10.398;2022-10-31T15:28:19;8.60;;;6.13;;
13230;SDS011;6681;53.254;10.398;2022-10-31T15:30:52;7.00;;;5.33;;
13230;SDS011;6681;53.254;10.398;2022-10-31T15:33:21;9.43;;;6.93;;
13230;SDS011;6681;53.254;10.398;2022-10-31T15:36:01;9.17;;;7.00;;
13230;SDS011;6681;53.254;10.398;2022-10-31T15:38:27;11.00;;;7.80;;
13230;SDS011;6681;53.254;10.398;2022-10-31T15:40:59;13.10;;;7.97;;
13230;SDS011;6681;53.254;10.398;2022-10-31T15:43:26;10.53;;;7.87;;
13230;SDS011;6681;53.254;10.398;2022-10-31T15:45:55;11.60;;;9.10;;
13230;SDS011;6681;53.254;10.398;2022-10-31T15:48:23;10.50;;;8.13;;
13230;SDS011;6681;53.254;10.398;2022-10-31T15:50:53;12.97;;;8.37;;
13230;SDS011;6681;53.254;10.398;2022-10-31T15:55:55;17.07;;;9.53;;
13230;SDS011;6681;53.254;10.398;2022-10-31T15:58:27;15.57;;;13.40;;
13230;SDS011;6681;53.254;10.398;2022-10-31T16:00:59;16.27;;;12.40;;
13230;SDS011;6681;53.254;10.398;2022-10-31T16:03:29;22.20;;;14.77;;
13230;SDS011;6681;53.254;10.398;2022-10-31T16:06:00;20.03;;;14.97;;
13230;SDS011;6681;53.254;10.398;2022-10-31T16:10:58;27.97;;;16.47;;
13230;SDS011;6681;53.254;10.398;2022-10-31T16:13:37;16.90;;;14.20;;
13230;SDS011;6681;53.254;10.398;2022-10-31T16:16:14;20.80;;;16.23;;
13230;SDS011;6681;53.254;10.398;2022-10-31T16:18:41;18.60;;;13.77;;
13230;SDS011;6681;53.254;10.398;2022-10-31T16:21:07;19.07;;;14.37;;
13230;SDS011;6681;53.254;10.398;2022-10-31T16:23:33;18.50;;;13.90;;
13230;SDS011;6681;53.254;10.398;2022-10-31T16:26:05;23.00;;;14.13;;
13230;SDS011;6681;53.254;10.398;2022-10-31T16:28:31;19.93;;;15.00;;
13230;SDS011;6681;53.254;10.398;2022-10-31T16:30:58;21.50;;;15.77;;
13230;SDS011;6681;53.254;10.398;2022-10-31T16:33:26;21.97;;;15.57;;
13230;SDS011;6681;53.254;10.398;2022-10-31T16:35:58;22.70;;;13.03;;
13230;SDS011;6681;53.254;10.398;2022-10-31T16:38:25;24.00;;;14.07;;
13230;SDS011;6681;53.254;10.398;2022-10-31T16:40:51;18.13;;;13.20;;
13230;SDS011;6681;53.254;10.398;2022-10-31T16:43:18;23.10;;;13.83;;
13230;SDS011;6681;53.254;10.398;2022-10-31T16:45:51;18.47;;;14.50;;
13230;SDS011;6681;53.254;10.398;2022-10-31T16:48:18;18.03;;;12.83;;
13230;SDS011;6681;53.254;10.398;2022-10-31T16:50:46;14.33;;;11.90;;
13230;SDS011;6681;53.254;10.398;2022-10-31T16:53:14;19.20;;;12.30;;
13230;SDS011;6681;53.254;10.398;2022-10-31T16:55:44;22.60;;;12.77;;
13230;SDS011;6681;53.254;10.398;2022-10-31T16:58:16;24.43;;;14.13;;
13230;SDS011;6681;53.254;10.398;2022-10-31T17:00:45;21.37;;;12.77;;
13230;SDS011;6681;53.254;10.398;2022-10-31T17:03:11;22.47;;;13.23;;
13230;SDS011;6681;53.254;10.398;2022-10-31T17:05:37;24.57;;;13.63;;
13230;SDS011;6681;53.254;10.398;2022-10-31T17:08:02;17.67;;;12.83;;
13230;SDS011;6681;53.254;10.398;2022-10-31T17:10:28;18.60;;;13.17;;
13230;SDS011;6681;53.254;10.398;2022-10-31T17:12:54;18.20;;;13.40;;
13230;SDS011;6681;53.254;10.398;2022-10-31T17:15:25;19.53;;;13.27;;
13230;SDS011;6681;53.254;10.398;2022-10-31T17:17:53;20.53;;;14.63;;